sensor_id;sensor_type;location;lat;lon;timestamp;P1;durP1;ratioP1;P2;durP2;ratioP2
59872;SDS011;50750;51.636;4.948;2022-07-05T00:01:10;1.90;;;0.90;;
59872;SDS011;50750;51.636;4.948;2022-07-05T00:03:37;1.80;;;1.00;;
59872;SDS011;50750;51.636;4.948;2022-07-05T00:06:04;2.00;;;1.10;;
59872;SDS011;50750;51.636;4.948;2022-07-05T00:08:30;2.50;;;1.20;;
59872;SDS011;50750;51.636;4.948;2022-07-05T00:10:57;2.00;;;1.20;;
59872;SDS011;50750;51.636;4.948;2022-07-05T00:13:23;2.00;;;1.20;;
59872;SDS011;50750;51.636;4.948;2022-07-05T00:15:50;2.20;;;1.20;;
59872;SDS011;50750;51.636;4.948;2022-07-05T00:18:18;2.10;;;1.00;;
59872;SDS011;50750;51.636;4.948;2022-07-05T00:20:45;2.00;;;1.20;;
59872;SDS011;50750;51.636;4.948;2022-07-05T00:23:11;2.10;;;1.20;;
59872;SDS011;50750;51.636;4.948;2022-07-05T00:25:38;1.80;;;1.10;;
59872;SDS011;50750;51.636;4.948;2022-07-05T00:28:05;2.60;;;1.20;;
59872;SDS011;50750;51.636;4.948;2022-07-05T00:30:31;2.00;;;1.30;;
59872;SDS011;50750;51.636;4.948;2022-07-05T00:32:58;2.30;;;1.30;;
59872;SDS011;50750;51.636;4.948;2022-07-05T00:35:24;2.40;;;1.10;;
59872;SDS011;50750;51.636;4.948;2022-07-05T00:37:51;2.50;;;1.40;;
59872;SDS011;50750;51.636;4.948;2022-07-05T00:40:17;2.60;;;1.40;;
59872;SDS011;50750;51.636;4.948;2022-07-05T00:42:44;2.50;;;1.30;;
59872;SDS011;50750;51.636;4.948;2022-07-05T00:45:11;2.10;;;1.20;;
59872;SDS011;50750;51.636;4.948;2022-07-05T00:47:37;2.90;;;1.40;;
59872;SDS011;50750;51.636;4.948;2022-07-05T00:50:04;2.80;;;1.30;;
59872;SDS011;50750;51.636;4.948;2022-07-05T00:52:31;2.40;;;1.40;;
59872;SDS011;50750;51.636;4.948;2022-07-05T00:54:58;2.50;;;1.30;;
59872;SDS011;50750;51.636;4.948;2022-07-05T00:57:25;2.30;;;1.40;;
59872;SDS011;50750;51.636;4.948;2022-07-05T00:59:51;3.10;;;1.50;;
59872;SDS011;50750;51.636;4.948;2022-07-05T01:02:18;2.30;;;1.30;;
59872;SDS011;50750;51.636;4.948;2022-07-05T01:04:47;2.50;;;1.30;;
59872;SDS011;50750;51.636;4.948;2022-07-05T01:07:15;3.20;;;1.60;;
59872;SDS011;50750;51.636;4.948;2022-07-05T01:09:44;2.80;;;1.30;;
59872;SDS011;50750;51.636;4.948;2022-07-05T01:12:10;3.00;;;1.40;;
59872;SDS011;50750;51.636;4.948;2022-07-05T01:14:37;4.90;;;1.60;;
59872;SDS011;50750;51.636;4.948;2022-07-05T01:17:04;2.70;;;1.50;;
59872;SDS011;50750;51.636;4.948;2022-07-05T01:19:31;2.50;;;1.40;;
59872;SDS011;50750;51.636;4.948;2022-07-05T01:21:58;3.40;;;1.50;;
59872;SDS011;50750;51.636;4.948;2022-07-05T01:24:30;2.30;;;1.10;;
59872;SDS011;50750;51.636;4.948;2022-07-05T01:26:56;2.50;;;1.30;;
59872;SDS011;50750;51.636;4.948;2022-07-05T01:29:23;2.50;;;1.40;;
59872;SDS011;50750;51.636;4.948;2022-07-05T01:31:50;2.50;;;1.60;;
59872;SDS011;50750;51.636;4.948;2022-07-05T01:34:16;3.10;;;1.20;;
59872;SDS011;50750;51.636;4.948;2022-07-05T01:36:43;2.10;;;1.40;;
59872;SDS011;50750;51.636;4.948;2022-07-05T01:39:10;2.20;;;1.30;;
59872;SDS011;50750;51.636;4.948;2022-07-05T01:41:37;2.50;;;1.30;;
59872;SDS011;50750;51.636;4.948;2022-07-05T01:44:03;2.90;;;1.40;;
59872;SDS011;50750;51.636;4.948;2022-07-05T01:46:31;2.40;;;1.40;;
59872;SDS011;50750;51.636;4.948;2022-07-05T01:49:00;2.80;;;1.60;;
59872;SDS011;50750;51.636;4.948;2022-07-05T01:51:33;2.20;;;1.40;;
59872;SDS011;50750;51.636;4.948;2022-07-05T01:54:02;2.10;;;1.50;;
59872;SDS011;50750;51.636;4.948;2022-07-05T01:56:29;2.20;;;1.40;;
59872;SDS011;50750;51.636;4.948;2022-07-05T01:58:56;2.30;;;1.40;;
59872;SDS011;50750;51.636;4.948;2022-07-05T02:01:57;2.80;;;1.40;;
59872;SDS011;50750;51.636;4.948;2022-07-05T02:04:24;2.70;;;1.50;;
59872;SDS011;50750;51.636;4.948;2022-07-05T02:06:51;2.90;;;1.60;;
59872;SDS011;50750;51.636;4.948;2022-07-05T02:09:17;2.90;;;1.70;;
59872;SDS011;50750;51.636;4.948;2022-07-05T02:11:44;2.50;;;1.50;;
59872;SDS011;50750;51.636;4.948;2022-07-05T02:14:11;3.30;;;1.40;;
59872;SDS011;50750;51.636;4.948;2022-07-05T02:16:38;2.40;;;1.50;;
59872;SDS011;50750;51.636;4.948;2022-07-05T02:19:04;2.30;;;1.30;;
59872;SDS011;50750;51.636;4.948;2022-07-05T02:21:31;2.00;;;1.20;;
59872;SDS011;50750;51.636;4.948;2022-07-05T02:23:57;2.40;;;1.10;;
59872;SDS011;50750;51.636;4.948;2022-07-05T02:26:24;2.40;;;1.50;;
59872;SDS011;50750;51.636;4.948;2022-07-05T02:28:50;2.20;;;1.40;;
59872;SDS011;50750;51.636;4.948;2022-07-05T02:31:16;2.50;;;1.50;;
59872;SDS011;50750;51.636;4.948;2022-07-05T02:33:45;2.30;;;1.30;;
59872;SDS011;50750;51.636;4.948;2022-07-05T02:36:12;2.30;;;1.20;;
59872;SDS011;50750;51.636;4.948;2022-07-05T02:38:39;3.50;;;1.30;;
59872;SDS011;50750;51.636;4.948;2022-07-05T02:41:07;3.10;;;1.60;;
59872;SDS011;50750;51.636;4.948;2022-07-05T02:43:34;2.20;;;1.20;;
59872;SDS011;50750;51.636;4.948;2022-07-05T02:46:02;1.90;;;1.10;;
59872;SDS011;50750;51.636;4.948;2022-07-05T02:48:30;2.40;;;1.30;;
59872;SDS011;50750;51.636;4.948;2022-07-05T02:50:57;2.80;;;1.20;;
59872;SDS011;50750;51.636;4.948;2022-07-05T02:53:24;3.00;;;1.50;;
59872;SDS011;50750;51.636;4.948;2022-07-05T02:55:51;3.00;;;1.50;;
59872;SDS011;50750;51.636;4.948;2022-07-05T02:58:18;3.60;;;1.60;;
59872;SDS011;50750;51.636;4.948;2022-07-05T03:00:45;2.30;;;1.10;;
59872;SDS011;50750;51.636;4.948;2022-07-05T03:03:14;2.00;;;1.20;;
59872;SDS011;50750;51.636;4.948;2022-07-05T03:05:41;2.40;;;1.40;;
59872;SDS011;50750;51.636;4.948;2022-07-05T03:08:08;2.50;;;1.60;;
59872;SDS011;50750;51.636;4.948;2022-07-05T03:10:35;2.40;;;1.30;;
59872;SDS011;50750;51.636;4.948;2022-07-05T03:13:02;3.10;;;1.30;;
59872;SDS011;50750;51.636;4.948;2022-07-05T03:15:29;2.20;;;1.30;;
59872;SDS011;50750;51.636;4.948;2022-07-05T03:17:56;2.30;;;1.30;;
59872;SDS011;50750;51.636;4.948;2022-07-05T03:20:22;2.60;;;1.60;;
59872;SDS011;50750;51.636;4.948;2022-07-05T03:22:49;3.00;;;1.40;;
59872;SDS011;50750;51.636;4.948;2022-07-05T03:25:15;2.80;;;1.70;;
59872;SDS011;50750;51.636;4.948;2022-07-05T03:27:42;2.70;;;1.60;;
59872;SDS011;50750;51.636;4.948;2022-07-05T03:30:09;3.10;;;1.60;;
59872;SDS011;50750;51.636;4.948;2022-07-05T03:32:36;3.50;;;1.70;;
59872;SDS011;50750;51.636;4.948;2022-07-05T03:35:02;2.60;;;1.50;;
59872;SDS011;50750;51.636;4.948;2022-07-05T03:37:29;2.10;;;1.40;;
59872;SDS011;50750;51.636;4.948;2022-07-05T03:39:56;2.40;;;1.50;;
59872;SDS011;50750;51.636;4.948;2022-07-05T03:42:22;3.00;;;1.50;;
59872;SDS011;50750;51.636;4.948;2022-07-05T03:44:49;2.60;;;1.50;;
59872;SDS011;50750;51.636;4.948;2022-07-05T03:47:15;2.60;;;1.40;;
59872;SDS011;50750;51.636;4.948;2022-07-05T03:49:41;3.10;;;1.60;;
59872;SDS011;50750;51.636;4.948;2022-07-05T03:52:08;2.80;;;1.50;;
59872;SDS011;50750;51.636;4.948;2022-07-05T03:54:35;2.80;;;1.70;;
59872;SDS011;50750;51.636;4.948;2022-07-05T03:57:01;2.30;;;1.50;;
59872;SDS011;50750;51.636;4.948;2022-07-05T03:59:28;2.10;;;1.40;;
59872;SDS011;50750;51.636;4.948;2022-07-05T04:01:54;2.80;;;1.50;;
59872;SDS011;50750;51.636;4.948;2022-07-05T04:04:21;3.30;;;1.30;;
59872;SDS011;50750;51.636;4.948;2022-07-05T04:06:47;3.10;;;1.60;;
59872;SDS011;50750;51.636;4.948;2022-07-05T04:09:14;2.00;;;1.30;;
59872;SDS011;50750;51.636;4.948;2022-07-05T04:11:40;2.50;;;1.40;;
59872;SDS011;50750;51.636;4.948;2022-07-05T04:14:07;3.90;;;1.60;;
59872;SDS011;50750;51.636;4.948;2022-07-05T04:16:35;2.80;;;1.60;;
59872;SDS011;50750;51.636;4.948;2022-07-05T04:19:02;3.30;;;1.70;;
59872;SDS011;50750;51.636;4.948;2022-07-05T04:21:29;2.60;;;1.30;;
59872;SDS011;50750;51.636;4.948;2022-07-05T04:23:55;2.20;;;1.50;;
59872;SDS011;50750;51.636;4.948;2022-07-05T04:26:22;3.20;;;1.50;;
59872;SDS011;50750;51.636;4.948;2022-07-05T04:28:48;2.60;;;1.40;;
59872;SDS011;50750;51.636;4.948;2022-07-05T04:31:14;2.60;;;1.60;;
59872;SDS011;50750;51.636;4.948;2022-07-05T04:33:41;2.90;;;1.40;;
59872;SDS011;50750;51.636;4.948;2022-07-05T04:36:08;2.20;;;1.30;;
59872;SDS011;50750;51.636;4.948;2022-07-05T04:38:35;2.30;;;1.40;;
59872;SDS011;50750;51.636;4.948;2022-07-05T04:41:01;2.80;;;1.70;;
59872;SDS011;50750;51.636;4.948;2022-07-05T04:43:28;3.30;;;1.50;;
59872;SDS011;50750;51.636;4.948;2022-07-05T04:45:54;2.40;;;1.40;;
59872;SDS011;50750;51.636;4.948;2022-07-05T04:48:21;1.90;;;1.20;;
59872;SDS011;50750;51.636;4.948;2022-07-05T04:50:47;2.20;;;1.20;;
59872;SDS011;50750;51.636;4.948;2022-07-05T04:53:14;3.30;;;1.30;;
59872;SDS011;50750;51.636;4.948;2022-07-05T04:55:40;3.20;;;1.30;;
59872;SDS011;50750;51.636;4.948;2022-07-05T04:58:07;2.10;;;1.30;;
59872;SDS011;50750;51.636;4.948;2022-07-05T05:00:33;2.50;;;1.30;;
59872;SDS011;50750;51.636;4.948;2022-07-05T05:03:00;2.30;;;1.10;;
59872;SDS011;50750;51.636;4.948;2022-07-05T05:05:27;2.30;;;1.20;;
59872;SDS011;50750;51.636;4.948;2022-07-05T05:07:53;2.10;;;1.20;;
59872;SDS011;50750;51.636;4.948;2022-07-05T05:10:20;2.50;;;1.10;;
59872;SDS011;50750;51.636;4.948;2022-07-05T05:12:46;2.70;;;1.20;;
59872;SDS011;50750;51.636;4.948;2022-07-05T05:15:13;2.70;;;1.40;;
59872;SDS011;50750;51.636;4.948;2022-07-05T05:17:40;2.60;;;1.50;;
59872;SDS011;50750;51.636;4.948;2022-07-05T05:22:39;2.60;;;1.30;;
59872;SDS011;50750;51.636;4.948;2022-07-05T05:25:07;2.10;;;1.40;;
59872;SDS011;50750;51.636;4.948;2022-07-05T05:27:34;2.50;;;1.30;;
59872;SDS011;50750;51.636;4.948;2022-07-05T05:30:01;2.20;;;1.20;;
59872;SDS011;50750;51.636;4.948;2022-07-05T05:32:28;2.00;;;1.20;;
59872;SDS011;50750;51.636;4.948;2022-07-05T05:34:55;2.70;;;1.20;;
59872;SDS011;50750;51.636;4.948;2022-07-05T05:37:21;3.40;;;1.30;;
59872;SDS011;50750;51.636;4.948;2022-07-05T05:39:48;2.00;;;1.20;;
59872;SDS011;50750;51.636;4.948;2022-07-05T05:42:14;2.10;;;1.20;;
59872;SDS011;50750;51.636;4.948;2022-07-05T05:44:41;2.10;;;1.30;;
59872;SDS011;50750;51.636;4.948;2022-07-05T05:47:07;2.60;;;1.30;;
59872;SDS011;50750;51.636;4.948;2022-07-05T05:49:34;1.90;;;1.20;;
59872;SDS011;50750;51.636;4.948;2022-07-05T05:52:00;2.30;;;1.30;;
59872;SDS011;50750;51.636;4.948;2022-07-05T05:54:26;3.50;;;1.40;;
59872;SDS011;50750;51.636;4.948;2022-07-05T05:56:53;1.90;;;1.20;;
59872;SDS011;50750;51.636;4.948;2022-07-05T05:59:19;2.50;;;1.30;;
59872;SDS011;50750;51.636;4.948;2022-07-05T06:01:46;2.30;;;1.30;;
59872;SDS011;50750;51.636;4.948;2022-07-05T06:04:12;2.90;;;1.30;;
59872;SDS011;50750;51.636;4.948;2022-07-05T06:06:39;2.20;;;1.30;;
59872;SDS011;50750;51.636;4.948;2022-07-05T06:09:05;2.00;;;1.30;;
59872;SDS011;50750;51.636;4.948;2022-07-05T06:11:32;2.10;;;1.30;;
59872;SDS011;50750;51.636;4.948;2022-07-05T06:13:58;4.00;;;1.30;;
59872;SDS011;50750;51.636;4.948;2022-07-05T06:16:25;2.70;;;1.30;;
59872;SDS011;50750;51.636;4.948;2022-07-05T06:18:51;1.70;;;1.20;;
59872;SDS011;50750;51.636;4.948;2022-07-05T06:21:18;2.20;;;1.10;;
59872;SDS011;50750;51.636;4.948;2022-07-05T06:23:44;2.20;;;1.10;;
59872;SDS011;50750;51.636;4.948;2022-07-05T06:26:11;1.90;;;1.10;;
59872;SDS011;50750;51.636;4.948;2022-07-05T06:28:37;1.90;;;1.10;;
59872;SDS011;50750;51.636;4.948;2022-07-05T06:31:04;2.70;;;1.30;;
59872;SDS011;50750;51.636;4.948;2022-07-05T06:33:30;1.80;;;1.10;;
59872;SDS011;50750;51.636;4.948;2022-07-05T06:35:57;1.70;;;1.10;;
59872;SDS011;50750;51.636;4.948;2022-07-05T06:38:23;2.10;;;1.10;;
59872;SDS011;50750;51.636;4.948;2022-07-05T06:40:50;2.00;;;1.10;;
59872;SDS011;50750;51.636;4.948;2022-07-05T06:43:16;1.90;;;1.10;;
59872;SDS011;50750;51.636;4.948;2022-07-05T06:45:43;2.00;;;1.10;;
59872;SDS011;50750;51.636;4.948;2022-07-05T06:48:10;1.50;;;1.00;;
59872;SDS011;50750;51.636;4.948;2022-07-05T06:50:39;2.50;;;1.20;;
59872;SDS011;50750;51.636;4.948;2022-07-05T06:53:07;2.60;;;1.20;;
59872;SDS011;50750;51.636;4.948;2022-07-05T06:55:35;2.70;;;1.30;;
59872;SDS011;50750;51.636;4.948;2022-07-05T07:00:31;2.00;;;1.10;;
59872;SDS011;50750;51.636;4.948;2022-07-05T07:02:58;2.30;;;1.20;;
59872;SDS011;50750;51.636;4.948;2022-07-05T07:05:25;2.30;;;1.20;;
59872;SDS011;50750;51.636;4.948;2022-07-05T07:07:52;2.80;;;1.30;;
59872;SDS011;50750;51.636;4.948;2022-07-05T07:10:38;4.20;;;2.00;;
59872;SDS011;50750;51.636;4.948;2022-07-05T07:13:05;2.80;;;1.60;;
59872;SDS011;50750;51.636;4.948;2022-07-05T07:15:32;4.30;;;1.50;;
59872;SDS011;50750;51.636;4.948;2022-07-05T07:17:59;3.30;;;1.40;;
59872;SDS011;50750;51.636;4.948;2022-07-05T07:20:27;2.70;;;1.20;;
59872;SDS011;50750;51.636;4.948;2022-07-05T07:22:53;2.60;;;1.20;;
59872;SDS011;50750;51.636;4.948;2022-07-05T07:25:20;4.20;;;1.60;;
59872;SDS011;50750;51.636;4.948;2022-07-05T07:27:53;2.70;;;1.40;;
59872;SDS011;50750;51.636;4.948;2022-07-05T07:30:25;2.50;;;1.30;;
59872;SDS011;50750;51.636;4.948;2022-07-05T07:32:53;2.50;;;1.20;;
59872;SDS011;50750;51.636;4.948;2022-07-05T07:35:20;2.60;;;1.20;;
59872;SDS011;50750;51.636;4.948;2022-07-05T07:37:47;2.70;;;1.30;;
59872;SDS011;50750;51.636;4.948;2022-07-05T07:40:14;3.10;;;1.30;;
59872;SDS011;50750;51.636;4.948;2022-07-05T07:42:41;3.30;;;1.30;;
59872;SDS011;50750;51.636;4.948;2022-07-05T07:45:07;2.50;;;1.20;;
59872;SDS011;50750;51.636;4.948;2022-07-05T07:47:35;2.20;;;1.10;;
59872;SDS011;50750;51.636;4.948;2022-07-05T07:50:03;2.50;;;1.10;;
59872;SDS011;50750;51.636;4.948;2022-07-05T07:52:31;2.70;;;1.20;;
59872;SDS011;50750;51.636;4.948;2022-07-05T07:55:00;3.40;;;1.40;;
59872;SDS011;50750;51.636;4.948;2022-07-05T07:57:27;2.30;;;1.20;;
59872;SDS011;50750;51.636;4.948;2022-07-05T07:59:55;3.10;;;1.10;;
59872;SDS011;50750;51.636;4.948;2022-07-05T08:02:21;2.60;;;1.20;;
59872;SDS011;50750;51.636;4.948;2022-07-05T08:04:49;1.90;;;1.10;;
59872;SDS011;50750;51.636;4.948;2022-07-05T08:07:16;1.90;;;1.10;;
59872;SDS011;50750;51.636;4.948;2022-07-05T08:09:44;3.20;;;1.20;;
59872;SDS011;50750;51.636;4.948;2022-07-05T08:12:11;4.10;;;1.30;;
59872;SDS011;50750;51.636;4.948;2022-07-05T08:14:38;2.60;;;1.20;;
59872;SDS011;50750;51.636;4.948;2022-07-05T08:17:05;3.30;;;1.20;;
59872;SDS011;50750;51.636;4.948;2022-07-05T08:22:20;2.20;;;1.20;;
59872;SDS011;50750;51.636;4.948;2022-07-05T08:24:47;2.40;;;1.10;;
59872;SDS011;50750;51.636;4.948;2022-07-05T08:27:14;2.20;;;1.50;;
59872;SDS011;50750;51.636;4.948;2022-07-05T08:29:41;2.50;;;1.40;;
59872;SDS011;50750;51.636;4.948;2022-07-05T08:32:09;2.50;;;1.20;;
59872;SDS011;50750;51.636;4.948;2022-07-05T08:34:36;2.90;;;1.20;;
59872;SDS011;50750;51.636;4.948;2022-07-05T08:37:03;2.70;;;1.10;;
59872;SDS011;50750;51.636;4.948;2022-07-05T08:39:30;2.40;;;1.10;;
59872;SDS011;50750;51.636;4.948;2022-07-05T08:41:58;1.90;;;1.00;;
59872;SDS011;50750;51.636;4.948;2022-07-05T08:44:26;2.60;;;1.20;;
59872;SDS011;50750;51.636;4.948;2022-07-05T08:46:56;2.20;;;1.30;;
59872;SDS011;50750;51.636;4.948;2022-07-05T08:49:24;2.30;;;1.10;;
59872;SDS011;50750;51.636;4.948;2022-07-05T08:51:52;2.40;;;1.10;;
59872;SDS011;50750;51.636;4.948;2022-07-05T08:54:21;2.30;;;1.10;;
59872;SDS011;50750;51.636;4.948;2022-07-05T08:56:50;2.40;;;1.20;;
59872;SDS011;50750;51.636;4.948;2022-07-05T08:59:17;2.00;;;1.00;;
59872;SDS011;50750;51.636;4.948;2022-07-05T09:01:44;1.90;;;1.00;;
59872;SDS011;50750;51.636;4.948;2022-07-05T09:04:13;2.70;;;1.30;;
59872;SDS011;50750;51.636;4.948;2022-07-05T09:06:41;2.20;;;1.30;;
59872;SDS011;50750;51.636;4.948;2022-07-05T09:09:08;2.50;;;1.10;;
59872;SDS011;50750;51.636;4.948;2022-07-05T09:11:38;1.90;;;1.10;;
59872;SDS011;50750;51.636;4.948;2022-07-05T09:14:23;2.20;;;1.10;;
59872;SDS011;50750;51.636;4.948;2022-07-05T09:16:52;2.40;;;1.20;;
59872;SDS011;50750;51.636;4.948;2022-07-05T09:19:19;2.60;;;1.20;;
59872;SDS011;50750;51.636;4.948;2022-07-05T09:21:46;3.50;;;1.30;;
59872;SDS011;50750;51.636;4.948;2022-07-05T09:24:13;3.90;;;1.50;;
59872;SDS011;50750;51.636;4.948;2022-07-05T09:26:42;2.30;;;1.50;;
59872;SDS011;50750;51.636;4.948;2022-07-05T09:29:12;4.20;;;1.50;;
59872;SDS011;50750;51.636;4.948;2022-07-05T09:34:08;3.10;;;1.30;;
59872;SDS011;50750;51.636;4.948;2022-07-05T09:36:49;2.90;;;1.30;;
59872;SDS011;50750;51.636;4.948;2022-07-05T09:39:18;2.90;;;1.30;;
59872;SDS011;50750;51.636;4.948;2022-07-05T09:42:20;2.70;;;1.20;;
59872;SDS011;50750;51.636;4.948;2022-07-05T09:44:51;2.10;;;1.20;;
59872;SDS011;50750;51.636;4.948;2022-07-05T09:47:20;2.60;;;1.10;;
59872;SDS011;50750;51.636;4.948;2022-07-05T09:49:52;2.30;;;1.40;;
59872;SDS011;50750;51.636;4.948;2022-07-05T09:52:29;3.50;;;1.60;;
59872;SDS011;50750;51.636;4.948;2022-07-05T09:55:07;3.30;;;1.30;;
59872;SDS011;50750;51.636;4.948;2022-07-05T09:57:38;3.00;;;1.30;;
59872;SDS011;50750;51.636;4.948;2022-07-05T10:00:08;3.00;;;1.60;;
59872;SDS011;50750;51.636;4.948;2022-07-05T10:02:41;3.60;;;1.50;;
59872;SDS011;50750;51.636;4.948;2022-07-05T10:05:16;4.50;;;1.60;;
59872;SDS011;50750;51.636;4.948;2022-07-05T10:07:57;3.50;;;1.60;;
59872;SDS011;50750;51.636;4.948;2022-07-05T10:10:28;2.90;;;1.30;;
59872;SDS011;50750;51.636;4.948;2022-07-05T10:12:57;3.10;;;1.40;;
59872;SDS011;50750;51.636;4.948;2022-07-05T10:15:26;3.50;;;1.40;;
59872;SDS011;50750;51.636;4.948;2022-07-05T10:20:44;3.00;;;1.40;;
59872;SDS011;50750;51.636;4.948;2022-07-05T10:23:16;3.10;;;1.40;;
59872;SDS011;50750;51.636;4.948;2022-07-05T10:25:45;3.20;;;1.20;;
59872;SDS011;50750;51.636;4.948;2022-07-05T10:28:16;3.60;;;1.60;;
59872;SDS011;50750;51.636;4.948;2022-07-05T10:30:44;3.80;;;1.30;;
59872;SDS011;50750;51.636;4.948;2022-07-05T10:33:12;3.80;;;1.40;;
59872;SDS011;50750;51.636;4.948;2022-07-05T10:35:42;3.30;;;1.60;;
59872;SDS011;50750;51.636;4.948;2022-07-05T10:38:09;2.70;;;1.40;;
59872;SDS011;50750;51.636;4.948;2022-07-05T10:40:38;2.30;;;1.40;;
59872;SDS011;50750;51.636;4.948;2022-07-05T10:43:09;4.40;;;1.50;;
59872;SDS011;50750;51.636;4.948;2022-07-05T10:45:39;3.10;;;1.70;;
59872;SDS011;50750;51.636;4.948;2022-07-05T10:48:20;2.70;;;1.50;;
59872;SDS011;50750;51.636;4.948;2022-07-05T10:50:59;3.30;;;1.40;;
59872;SDS011;50750;51.636;4.948;2022-07-05T10:58:42;3.90;;;1.20;;
59872;SDS011;50750;51.636;4.948;2022-07-05T11:05:04;5.20;;;1.20;;
59872;SDS011;50750;51.636;4.948;2022-07-05T11:10:25;2.70;;;1.10;;
59872;SDS011;50750;51.636;4.948;2022-07-05T11:12:52;2.10;;;1.30;;
59872;SDS011;50750;51.636;4.948;2022-07-05T11:15:18;3.00;;;1.40;;
59872;SDS011;50750;51.636;4.948;2022-07-05T11:17:45;3.10;;;1.30;;
59872;SDS011;50750;51.636;4.948;2022-07-05T11:22:59;3.60;;;1.10;;
59872;SDS011;50750;51.636;4.948;2022-07-05T11:25:35;2.30;;;1.10;;
59872;SDS011;50750;51.636;4.948;2022-07-05T11:28:12;2.30;;;1.20;;
59872;SDS011;50750;51.636;4.948;2022-07-05T11:33:31;4.90;;;1.40;;
59872;SDS011;50750;51.636;4.948;2022-07-05T11:36:07;2.60;;;1.30;;
59872;SDS011;50750;51.636;4.948;2022-07-05T11:41:34;2.50;;;1.20;;
59872;SDS011;50750;51.636;4.948;2022-07-05T11:44:05;2.10;;;0.90;;
59872;SDS011;50750;51.636;4.948;2022-07-05T11:46:34;2.30;;;1.00;;
59872;SDS011;50750;51.636;4.948;2022-07-05T11:49:00;2.90;;;1.20;;
59872;SDS011;50750;51.636;4.948;2022-07-05T11:51:27;2.10;;;1.10;;
59872;SDS011;50750;51.636;4.948;2022-07-05T11:53:54;3.10;;;1.30;;
59872;SDS011;50750;51.636;4.948;2022-07-05T11:56:20;1.90;;;1.00;;
59872;SDS011;50750;51.636;4.948;2022-07-05T11:58:47;1.90;;;1.00;;
59872;SDS011;50750;51.636;4.948;2022-07-05T12:01:14;2.10;;;1.00;;
59872;SDS011;50750;51.636;4.948;2022-07-05T12:03:40;2.30;;;1.20;;
59872;SDS011;50750;51.636;4.948;2022-07-05T12:06:13;2.00;;;1.10;;
59872;SDS011;50750;51.636;4.948;2022-07-05T12:08:46;2.70;;;1.10;;
59872;SDS011;50750;51.636;4.948;2022-07-05T12:11:14;2.30;;;1.00;;
59872;SDS011;50750;51.636;4.948;2022-07-05T12:13:59;2.00;;;1.10;;
59872;SDS011;50750;51.636;4.948;2022-07-05T12:16:25;1.80;;;0.90;;
59872;SDS011;50750;51.636;4.948;2022-07-05T12:18:53;2.50;;;1.10;;
59872;SDS011;50750;51.636;4.948;2022-07-05T12:21:53;1.90;;;0.90;;
59872;SDS011;50750;51.636;4.948;2022-07-05T12:24:21;1.70;;;0.90;;
59872;SDS011;50750;51.636;4.948;2022-07-05T12:26:49;1.70;;;0.90;;
59872;SDS011;50750;51.636;4.948;2022-07-05T12:29:17;2.70;;;1.00;;
59872;SDS011;50750;51.636;4.948;2022-07-05T12:31:57;2.50;;;1.00;;
59872;SDS011;50750;51.636;4.948;2022-07-05T12:34:26;1.90;;;1.00;;
59872;SDS011;50750;51.636;4.948;2022-07-05T12:36:53;2.20;;;1.10;;
59872;SDS011;50750;51.636;4.948;2022-07-05T12:39:19;2.00;;;1.00;;
59872;SDS011;50750;51.636;4.948;2022-07-05T12:41:46;2.30;;;1.10;;
59872;SDS011;50750;51.636;4.948;2022-07-05T12:44:13;1.70;;;0.90;;
59872;SDS011;50750;51.636;4.948;2022-07-05T12:46:45;2.60;;;1.10;;
59872;SDS011;50750;51.636;4.948;2022-07-05T12:49:12;2.30;;;1.00;;
59872;SDS011;50750;51.636;4.948;2022-07-05T12:51:39;1.70;;;0.90;;
59872;SDS011;50750;51.636;4.948;2022-07-05T12:54:08;2.70;;;1.10;;
59872;SDS011;50750;51.636;4.948;2022-07-05T12:57:03;2.10;;;0.90;;
59872;SDS011;50750;51.636;4.948;2022-07-05T13:00:05;2.00;;;0.90;;
59872;SDS011;50750;51.636;4.948;2022-07-05T13:02:37;1.60;;;0.90;;
59872;SDS011;50750;51.636;4.948;2022-07-05T13:05:05;2.80;;;1.00;;
59872;SDS011;50750;51.636;4.948;2022-07-05T13:07:43;2.00;;;0.80;;
59872;SDS011;50750;51.636;4.948;2022-07-05T13:10:16;2.60;;;0.90;;
59872;SDS011;50750;51.636;4.948;2022-07-05T13:12:45;2.10;;;0.90;;
59872;SDS011;50750;51.636;4.948;2022-07-05T13:15:12;1.80;;;0.70;;
59872;SDS011;50750;51.636;4.948;2022-07-05T13:17:39;2.00;;;1.00;;
59872;SDS011;50750;51.636;4.948;2022-07-05T13:20:07;2.30;;;1.00;;
59872;SDS011;50750;51.636;4.948;2022-07-05T13:22:34;1.90;;;1.00;;
59872;SDS011;50750;51.636;4.948;2022-07-05T13:25:01;2.00;;;0.90;;
59872;SDS011;50750;51.636;4.948;2022-07-05T13:27:28;2.60;;;0.80;;
59872;SDS011;50750;51.636;4.948;2022-07-05T13:29:55;2.10;;;0.90;;
59872;SDS011;50750;51.636;4.948;2022-07-05T13:32:21;3.20;;;0.80;;
59872;SDS011;50750;51.636;4.948;2022-07-05T13:34:48;2.20;;;0.90;;
59872;SDS011;50750;51.636;4.948;2022-07-05T13:37:15;5.10;;;0.90;;
59872;SDS011;50750;51.636;4.948;2022-07-05T13:39:41;2.10;;;0.90;;
59872;SDS011;50750;51.636;4.948;2022-07-05T13:42:08;2.70;;;1.00;;
59872;SDS011;50750;51.636;4.948;2022-07-05T13:44:35;2.30;;;0.80;;
59872;SDS011;50750;51.636;4.948;2022-07-05T13:47:02;2.90;;;0.80;;
59872;SDS011;50750;51.636;4.948;2022-07-05T13:49:30;1.40;;;0.80;;
59872;SDS011;50750;51.636;4.948;2022-07-05T13:51:56;1.40;;;0.70;;
59872;SDS011;50750;51.636;4.948;2022-07-05T13:56:53;2.00;;;0.90;;
59872;SDS011;50750;51.636;4.948;2022-07-05T13:59:20;2.40;;;0.90;;
59872;SDS011;50750;51.636;4.948;2022-07-05T14:01:47;2.40;;;0.90;;
59872;SDS011;50750;51.636;4.948;2022-07-05T14:04:13;2.30;;;0.80;;
59872;SDS011;50750;51.636;4.948;2022-07-05T14:06:40;2.10;;;0.90;;
59872;SDS011;50750;51.636;4.948;2022-07-05T14:09:06;1.30;;;0.80;;
59872;SDS011;50750;51.636;4.948;2022-07-05T14:11:34;2.30;;;0.80;;
59872;SDS011;50750;51.636;4.948;2022-07-05T14:14:01;2.40;;;0.80;;
59872;SDS011;50750;51.636;4.948;2022-07-05T14:16:27;1.20;;;0.70;;
59872;SDS011;50750;51.636;4.948;2022-07-05T14:18:54;3.40;;;0.80;;
59872;SDS011;50750;51.636;4.948;2022-07-05T14:21:22;1.50;;;0.70;;
59872;SDS011;50750;51.636;4.948;2022-07-05T14:23:48;1.90;;;0.70;;
59872;SDS011;50750;51.636;4.948;2022-07-05T14:26:15;1.50;;;0.70;;
59872;SDS011;50750;51.636;4.948;2022-07-05T14:28:42;2.60;;;0.70;;
59872;SDS011;50750;51.636;4.948;2022-07-05T14:31:09;2.60;;;0.90;;
59872;SDS011;50750;51.636;4.948;2022-07-05T14:33:36;1.70;;;0.70;;
59872;SDS011;50750;51.636;4.948;2022-07-05T14:36:05;1.60;;;0.70;;
59872;SDS011;50750;51.636;4.948;2022-07-05T14:38:33;1.60;;;0.80;;
59872;SDS011;50750;51.636;4.948;2022-07-05T14:40:59;1.60;;;0.80;;
59872;SDS011;50750;51.636;4.948;2022-07-05T14:43:26;1.30;;;0.60;;
59872;SDS011;50750;51.636;4.948;2022-07-05T14:45:52;1.20;;;0.60;;
59872;SDS011;50750;51.636;4.948;2022-07-05T14:48:19;1.90;;;0.80;;
59872;SDS011;50750;51.636;4.948;2022-07-05T14:50:47;1.60;;;0.70;;
59872;SDS011;50750;51.636;4.948;2022-07-05T14:53:15;1.90;;;0.70;;
59872;SDS011;50750;51.636;4.948;2022-07-05T14:55:43;1.30;;;0.70;;
59872;SDS011;50750;51.636;4.948;2022-07-05T14:58:09;2.00;;;0.70;;
59872;SDS011;50750;51.636;4.948;2022-07-05T15:00:36;1.90;;;0.80;;
59872;SDS011;50750;51.636;4.948;2022-07-05T15:03:02;1.20;;;0.70;;
59872;SDS011;50750;51.636;4.948;2022-07-05T15:05:29;2.80;;;0.90;;
59872;SDS011;50750;51.636;4.948;2022-07-05T15:07:57;1.70;;;0.80;;
59872;SDS011;50750;51.636;4.948;2022-07-05T15:10:23;1.10;;;0.60;;
59872;SDS011;50750;51.636;4.948;2022-07-05T15:12:50;1.70;;;0.90;;
59872;SDS011;50750;51.636;4.948;2022-07-05T15:15:16;1.20;;;0.60;;
59872;SDS011;50750;51.636;4.948;2022-07-05T15:17:43;1.60;;;0.60;;
59872;SDS011;50750;51.636;4.948;2022-07-05T15:20:10;1.60;;;0.70;;
59872;SDS011;50750;51.636;4.948;2022-07-05T15:22:37;1.20;;;0.70;;
59872;SDS011;50750;51.636;4.948;2022-07-05T15:25:04;1.70;;;0.70;;
59872;SDS011;50750;51.636;4.948;2022-07-05T15:27:31;2.10;;;0.70;;
59872;SDS011;50750;51.636;4.948;2022-07-05T15:29:58;1.30;;;0.70;;